createdAt,value
2023-05-14T00:04:01.284Z,96786.66
2023-05-14T00:09:04.548Z,96781.91
2023-05-14T00:14:07.228Z,96784.47
2023-05-14T00:19:10.054Z,96766.69
2023-05-14T00:24:12.670Z,96755.09
2023-05-14T00:29:15.200Z,96754.09
2023-05-14T00:34:17.850Z,96747.72
2023-05-14T00:39:20.702Z,96757.63
2023-05-14T00:44:23.292Z,96757.38
2023-05-14T00:49:26.910Z,96747.22
2023-05-14T00:54:31.133Z,96755.56
2023-05-14T00:59:34.140Z,96747.47
2023-05-14T01:04:36.493Z,96746.66
2023-05-14T01:09:57.442Z,96737.59
2023-05-14T01:15:06.896Z,96729.19
2023-05-14T01:20:10.296Z,96725.25
2023-05-14T01:25:13.058Z,96711.56
2023-05-14T01:30:27.476Z,96723.69
2023-05-14T01:35:31.150Z,96719.13
2023-05-14T01:40:34.381Z,96715.63
2023-05-14T01:45:37.453Z,96713.13
2023-05-14T01:50:39.596Z,96702.81
2023-05-14T01:55:42.123Z,96702.94
2023-05-14T02:00:45.260Z,96710.91
2023-05-14T02:05:47.811Z,96709.25
2023-05-14T02:10:49.846Z,96705.31
2023-05-14T02:15:52.499Z,96719.50
2023-05-14T02:20:55.362Z,96720.53
2023-05-14T02:25:58.090Z,96708.63
2023-05-14T02:31:01.702Z,96693.66
2023-05-14T02:36:04.270Z,96687.66
2023-05-14T02:41:07.289Z,96695.13
2023-05-14T02:46:09.951Z,96713.38
2023-05-14T02:51:13.123Z,96704.41
2023-05-14T02:56:16.056Z,96723.69
2023-05-14T03:01:19.094Z,96704.19
2023-05-14T03:06:22.197Z,96697.44
2023-05-14T03:11:25.024Z,96670.00
2023-05-14T03:16:27.732Z,96712.75
2023-05-14T03:21:30.395Z,96704.91
2023-05-14T03:26:33.067Z,96685.25
2023-05-14T03:31:35.757Z,96686.09
2023-05-14T03:36:39.949Z,96700.09
2023-05-14T03:41:42.670Z,96694.97
2023-05-14T03:46:45.295Z,96700.22
2023-05-14T03:51:47.617Z,96707.84
2023-05-14T03:56:49.957Z,96692.00
2023-05-14T04:01:52.765Z,96698.94
2023-05-14T04:06:55.058Z,96696.59
2023-05-14T04:11:57.859Z,96713.25
2023-05-14T04:17:00.696Z,96710.09
2023-05-14T04:22:03.540Z,96719.38
2023-05-14T04:27:07.303Z,96726.00
2023-05-14T04:32:09.773Z,96723.53
2023-05-14T04:37:12.440Z,96665.25
2023-05-14T04:42:15.110Z,96679.53
2023-05-14T04:47:17.288Z,96676.34
2023-05-14T04:52:19.849Z,96669.94
2023-05-14T04:57:22.421Z,96675.28
2023-05-14T05:02:25.305Z,96671.94
2023-05-14T05:07:27.557Z,96679.22
2023-05-14T05:12:30.518Z,96689.38
2023-05-14T05:17:33.147Z,96697.19
2023-05-14T05:22:36.412Z,96686.97
2023-05-14T05:27:39.382Z,96668.41
2023-05-14T05:32:42.148Z,96679.31
2023-05-14T05:37:45.690Z,96694.66
2023-05-14T05:42:48.229Z,96685.47
2023-05-14T05:47:50.912Z,96688.91
2023-05-14T05:52:53.638Z,96708.06
2023-05-14T05:57:56.487Z,96710.22
2023-05-14T06:02:58.700Z,96722.56
2023-05-14T06:08:01.230Z,96696.13
2023-05-14T06:13:03.905Z,96702.00
2023-05-14T06:18:06.596Z,96703.50
2023-05-14T06:23:09.585Z,96697.13
2023-05-14T06:28:12.245Z,96682.22
2023-05-14T06:33:15.258Z,96685.63
2023-05-14T06:38:17.871Z,96697.75
2023-05-14T06:43:20.008Z,96725.78
2023-05-14T06:48:22.985Z,96711.31
2023-05-14T06:53:25.834Z,96719.75
2023-05-14T06:58:28.795Z,96715.97
2023-05-14T07:03:31.539Z,96733.31
2023-05-14T07:08:34.097Z,96739.91
2023-05-14T07:13:36.759Z,96729.00
2023-05-14T07:18:39.450Z,96733.56
2023-05-14T07:23:42.052Z,96724.13
2023-05-14T07:28:44.728Z,96732.72
2023-05-14T07:33:47.404Z,96741.28
2023-05-14T07:38:50.081Z,96737.81
2023-05-14T07:43:52.581Z,96752.56
2023-05-14T07:48:55.185Z,96731.31
2023-05-14T07:53:57.909Z,96737.31
2023-05-14T07:58:59.966Z,96736.97
2023-05-14T08:04:02.629Z,96725.88
2023-05-14T08:09:05.601Z,96719.84
2023-05-14T08:14:08.327Z,96728.66
2023-05-14T08:19:10.651Z,96718.41
2023-05-14T08:24:13.349Z,96735.88
2023-05-14T08:29:16.724Z,96756.84
2023-05-14T08:34:19.612Z,96741.63
2023-05-14T08:39:22.279Z,96743.91
2023-05-14T08:44:39.174Z,96745.78
2023-05-14T08:49:43.931Z,96755.69
2023-05-14T08:54:48.341Z,96765.28
2023-05-14T08:59:51.876Z,96759.50
2023-05-14T09:05:00.245Z,96760.28
2023-05-14T09:10:04.094Z,96780.13
2023-05-14T09:15:07.529Z,96782.78
2023-05-14T09:20:13.001Z,96788.63
2023-05-14T09:25:15.726Z,96782.41
2023-05-14T09:30:18.543Z,96794.19
2023-05-14T09:35:24.358Z,96781.03
2023-05-14T09:40:27.509Z,96783.41
2023-05-14T09:45:30.507Z,96766.09
2023-05-14T09:50:33.321Z,96788.47
2023-05-14T09:55:37.319Z,96784.97
2023-05-14T10:00:39.782Z,96751.53
2023-05-14T10:05:43.013Z,96763.25
2023-05-14T10:10:45.807Z,96752.66
2023-05-14T10:15:57.772Z,96747.50
2023-05-14T10:21:08.709Z,96723.28
2023-05-14T10:26:11.204Z,96716.53
2023-05-14T10:31:14.775Z,96702.78
2023-05-14T10:36:20.887Z,96694.81
2023-05-14T10:41:23.520Z,96696.75
2023-05-14T10:46:26.067Z,96691.47
2023-05-14T10:51:28.668Z,96672.31
2023-05-14T10:56:31.657Z,96653.91
2023-05-14T11:01:34.398Z,96627.38
2023-05-14T11:06:39.641Z,96617.00
2023-05-14T11:11:42.281Z,96637.53
2023-05-14T11:16:45.079Z,96636.16
2023-05-14T11:21:47.789Z,96620.69
2023-05-14T11:26:50.296Z,96616.94
2023-05-14T11:31:53.501Z,96621.81
2023-05-14T11:36:55.650Z,96616.16
2023-05-14T11:41:59.064Z,96626.00
2023-05-14T11:47:02.275Z,96615.50
2023-05-14T11:52:06.891Z,96615.16
2023-05-14T11:57:18.020Z,96601.97
2023-05-14T12:02:20.771Z,96607.22
2023-05-14T12:07:23.447Z,96609.75
2023-05-14T12:12:26.081Z,96595.50
2023-05-14T12:17:28.675Z,96595.41
2023-05-14T12:22:31.416Z,96584.78
2023-05-14T12:27:37.598Z,96587.06
2023-05-14T12:32:43.193Z,96566.97
2023-05-14T12:37:46.041Z,96579.00
2023-05-14T12:42:48.615Z,96562.75
2023-05-14T12:47:51.417Z,96578.69
2023-05-14T12:52:54.077Z,96576.81
2023-05-14T12:57:56.318Z,96557.88
2023-05-14T13:02:59.016Z,96509.59
2023-05-14T13:08:03.953Z,96525.66
2023-05-14T13:13:06.482Z,96529.00
2023-05-14T13:18:09.246Z,96534.91
2023-05-14T13:23:11.497Z,96532.38
2023-05-14T13:28:14.482Z,96517.63
2023-05-14T13:33:16.707Z,96502.25
2023-05-14T13:38:19.281Z,96488.00
2023-05-14T13:43:21.815Z,96497.50
2023-05-14T13:48:25.728Z,96480.97
2023-05-14T13:53:28.483Z,96499.91
2023-05-14T13:58:31.205Z,96498.38
2023-05-14T14:03:33.963Z,96472.28
2023-05-14T14:08:36.599Z,96489.31
2023-05-14T14:13:40.254Z,96476.09
2023-05-14T14:18:44.773Z,96474.38
2023-05-14T14:23:47.949Z,96462.75
2023-05-14T14:28:50.609Z,96451.47
2023-05-14T14:33:52.801Z,96454.47
2023-05-14T14:38:55.307Z,96461.47
2023-05-14T14:43:58.081Z,96450.22
2023-05-14T14:49:00.752Z,96456.47
2023-05-14T14:54:05.294Z,96474.56
2023-05-14T14:59:08.078Z,96467.78
2023-05-14T15:04:10.935Z,96438.22
2023-05-14T15:09:13.572Z,96447.34
2023-05-14T15:14:16.199Z,96441.91
2023-05-14T15:19:18.571Z,96446.03
2023-05-14T15:24:21.382Z,96438.19
2023-05-14T15:29:24.209Z,96450.44
2023-05-14T15:34:26.346Z,96444.91
2023-05-14T15:39:30.222Z,96445.88
2023-05-14T15:44:32.849Z,96440.13
2023-05-14T15:49:35.582Z,96422.72
2023-05-14T15:54:38.408Z,96419.25
2023-05-14T15:59:41.215Z,96420.84
2023-05-14T16:04:45.593Z,96424.22
2023-05-14T16:09:48.291Z,96420.63
2023-05-14T16:14:50.980Z,96426.66
2023-05-14T16:19:55.929Z,96413.66
2023-05-14T16:25:01.793Z,96428.81
2023-05-14T16:30:06.807Z,96428.09
2023-05-14T16:35:10.269Z,96422.66
2023-05-14T16:40:13.610Z,96402.09
2023-05-14T16:45:16.289Z,96430.69
2023-05-14T16:50:19.060Z,96417.19
2023-05-14T16:55:21.853Z,96405.19
2023-05-14T17:00:24.721Z,96427.31
2023-05-14T17:05:27.275Z,96432.13
2023-05-14T17:10:30.500Z,96427.75
2023-05-14T17:15:33.212Z,96421.50
2023-05-14T17:20:35.788Z,96418.00
2023-05-14T17:25:38.353Z,96428.34
2023-05-14T17:30:41.417Z,96426.41
2023-05-14T17:35:46.002Z,96427.25
2023-05-14T17:40:48.862Z,96427.13
2023-05-14T17:45:54.444Z,96419.03
2023-05-14T17:50:57.293Z,96418.31
2023-05-14T17:56:00.308Z,96426.63
2023-05-14T18:01:06.311Z,96423.19
2023-05-14T18:06:09.061Z,96429.66
2023-05-14T18:11:11.734Z,96430.56
2023-05-14T18:16:13.872Z,96429.16
2023-05-14T18:21:16.519Z,96437.59
2023-05-14T18:26:19.200Z,96449.41
2023-05-14T18:31:21.914Z,96445.69
2023-05-14T18:36:24.503Z,96448.00
2023-05-14T18:41:27.033Z,96441.38
2023-05-14T18:46:29.601Z,96453.09
2023-05-14T18:51:32.525Z,96449.34
2023-05-14T18:56:37.079Z,96434.97
2023-05-14T19:01:39.672Z,96418.13
2023-05-14T19:06:42.692Z,96426.09
2023-05-14T19:11:45.256Z,96400.75
2023-05-14T19:16:47.882Z,96402.50
2023-05-14T19:21:50.540Z,96389.75
2023-05-14T19:26:53.207Z,96383.41
2023-05-14T19:31:55.989Z,96368.38
2023-05-14T19:36:58.665Z,96369.19
2023-05-14T19:42:01.592Z,96381.53
2023-05-14T19:47:03.877Z,96381.97
2023-05-14T19:52:06.785Z,96367.63
2023-05-14T19:57:10.206Z,96376.38
2023-05-14T20:02:18.554Z,96355.28
2023-05-14T20:07:20.960Z,96359.56
2023-05-14T20:12:24.046Z,96359.00
2023-05-14T20:17:26.248Z,96364.56
2023-05-14T20:22:28.892Z,96369.00
2023-05-14T20:27:31.526Z,96352.75
2023-05-14T20:32:33.884Z,96366.31
2023-05-14T20:37:36.637Z,96353.19
2023-05-14T20:42:39.505Z,96342.78
2023-05-14T20:47:41.628Z,96338.97
2023-05-14T20:52:47.104Z,96324.16
2023-05-14T20:57:49.913Z,96332.34
2023-05-14T21:02:52.226Z,96336.13
2023-05-14T21:07:54.973Z,96337.41
2023-05-14T21:12:57.334Z,96295.63
2023-05-14T21:18:00.058Z,96306.03
2023-05-14T21:23:02.841Z,96298.88
2023-05-14T21:28:05.660Z,96311.63
2023-05-14T21:33:08.380Z,96295.09
2023-05-14T21:38:11.186Z,96285.44
2023-05-14T21:43:13.749Z,96265.84
2023-05-14T21:48:16.429Z,96261.75
2023-05-14T21:53:19.087Z,96283.84
2023-05-14T21:58:22.109Z,96273.66
2023-05-14T22:03:24.333Z,96263.31
2023-05-14T22:08:27.517Z,96242.38
2023-05-14T22:13:30.063Z,96256.59
2023-05-14T22:18:34.071Z,96242.59
2023-05-14T22:23:36.461Z,96238.91
2023-05-14T22:28:43.183Z,96254.50
2023-05-14T22:33:45.587Z,96199.78
2023-05-14T22:38:48.351Z,96216.31
2023-05-14T22:43:51.250Z,96198.75
2023-05-14T22:48:53.492Z,96226.09
2023-05-14T22:53:56.060Z,96207.44
2023-05-14T22:59:02.304Z,96212.16
2023-05-14T23:04:04.972Z,96184.88
2023-05-14T23:09:07.135Z,96216.63
2023-05-14T23:14:09.708Z,96193.88
2023-05-14T23:19:12.580Z,96185.78
2023-05-14T23:24:15.558Z,96194.94
2023-05-14T23:29:18.143Z,96189.59
2023-05-14T23:34:22.240Z,96197.63
2023-05-14T23:39:24.915Z,96197.97
2023-05-14T23:44:27.673Z,96183.56
2023-05-14T23:49:29.841Z,96172.81
2023-05-14T23:54:32.427Z,96175.97
2023-05-14T23:59:34.942Z,96186.66
